Time;durP1;ratioP1;P1;durP2;ratioP2;P2;SDS_P1;SDS_P2;PMS_P1;PMS_P2;Temp;Humidity;BMP_temperature;BMP_pressure;BME280_temperature;BME280_humidity;BME280_pressure;Samples;Min_cycle;Max_cycle;Signal;HPM_P1;HPM_P2
2022/05/15 00:02:05;;;;;;;10.30;3.53;;;;;;;;;;4879730;29;20048;-59
2022/05/15 00:04:31;;;;;;;14.20;3.88;;;;;;;;;;4862426;29;20747;-58
2022/05/15 00:06:57;;;;;;;7.25;3.17;;;;;;;;;;4879368;29;20025;-58
2022/05/15 00:09:23;;;;;;;8.52;3.20;;;;;;;;;;4878884;29;20132;-61
2022/05/15 00:11:49;;;;;;;14.23;3.75;;;;;;;;;;4879786;29;20033;-62
2022/05/15 00:14:15;;;;;;;8.25;2.92;;;;;;;;;;4879609;29;20077;-62
2022/05/15 00:16:41;;;;;;;8.55;3.45;;;;;;;;;;4879330;29;20109;-63
2022/05/15 00:19:07;;;;;;;11.13;3.45;;;;;;;;;;4879235;29;20044;-62
2022/05/15 00:21:35;;;;;;;10.93;3.72;;;;;;;;;;4879367;29;20070;-57
2022/05/15 00:24:01;;;;;;;8.63;3.53;;;;;;;;;;4878990;29;20054;-62
2022/05/15 00:26:27;;;;;;;8.32;3.40;;;;;;;;;;4879263;29;20036;-57
2022/05/15 00:28:53;;;;;;;12.45;3.60;;;;;;;;;;4879024;29;20029;-57
2022/05/15 00:31:19;;;;;;;9.07;3.42;;;;;;;;;;4878848;29;20371;-60
2022/05/15 00:33:45;;;;;;;9.90;3.33;;;;;;;;;;4861791;29;20451;-62
2022/05/15 00:36:12;;;;;;;8.00;3.20;;;;;;;;;;4878976;29;20422;-62
2022/05/15 00:38:38;;;;;;;8.40;3.38;;;;;;;;;;4878726;29;20033;-60
2022/05/15 00:41:04;;;;;;;11.90;3.38;;;;;;;;;;4879041;29;20032;-58
2022/05/15 00:43:39;;;;;;;10.68;3.63;;;;;;;;;;4878539;29;20028;-59
2022/05/15 00:46:06;;;;;;;8.00;3.50;;;;;;;;;;4878522;29;20052;-59
2022/05/15 00:48:32;;;;;;;10.82;3.28;;;;;;;;;;4878741;29;20409;-63
2022/05/15 00:50:59;;;;;;;9.60;3.50;;;;;;;;;;4878889;29;20033;-64
2022/05/15 00:53:25;;;;;;;10.75;3.30;;;;;;;;;;4878879;29;20140;-63
2022/05/15 00:55:52;;;;;;;11.20;3.30;;;;;;;;;;4878427;29;20033;-58
2022/05/15 00:58:31;;;;;;;7.43;3.40;;;;;;;;;;4878540;29;20029;-64
2022/05/15 01:00:58;;;;;;;6.22;3.00;;;;;;;;;;4878603;29;20112;-59
2022/05/15 01:03:24;;;;;;;11.63;3.25;;;;;;;;;;4878502;29;20078;-58
2022/05/15 01:05:51;;;;;;;9.40;3.28;;;;;;;;;;4878549;29;20493;-58
2022/05/15 01:08:17;;;;;;;9.63;3.60;;;;;;;;;;4878180;29;20144;-63
2022/05/15 01:10:48;;;;;;;8.43;3.45;;;;;;;;;;4878449;29;20032;-58
2022/05/15 01:13:14;;;;;;;7.88;3.22;;;;;;;;;;4861169;29;20037;-61
2022/05/15 01:15:42;;;;;;;10.05;3.28;;;;;;;;;;4877539;29;20103;-64
2022/05/15 01:18:08;;;;;;;9.82;3.10;;;;;;;;;;4878023;29;20077;-59
2022/05/15 01:20:35;;;;;;;10.88;3.25;;;;;;;;;;4878543;29;20109;-62
2022/05/15 01:23:02;;;;;;;9.90;3.50;;;;;;;;;;4878249;29;20025;-63
2022/05/15 01:25:30;;;;;;;9.93;3.25;;;;;;;;;;4877843;29;20048;-60
2022/05/15 01:27:59;;;;;;;7.65;3.50;;;;;;;;;;4878153;29;20488;-60
2022/05/15 01:30:25;;;;;;;9.10;3.75;;;;;;;;;;4878488;29;20025;-63
2022/05/15 01:32:51;;;;;;;7.47;3.35;;;;;;;;;;4878052;29;20044;-60
2022/05/15 01:35:18;;;;;;;10.20;3.67;;;;;;;;;;4878390;29;20545;-62
2022/05/15 01:37:44;;;;;;;12.07;3.78;;;;;;;;;;4877956;29;20414;-63
2022/05/15 01:40:10;;;;;;;10.85;3.25;;;;;;;;;;4877509;29;20036;-57
2022/05/15 01:42:37;;;;;;;8.68;3.88;;;;;;;;;;4878033;29;20112;-64
2022/05/15 01:45:04;;;;;;;8.52;3.53;;;;;;;;;;4878034;29;20121;-58
2022/05/15 01:47:30;;;;;;;10.50;3.35;;;;;;;;;;4877748;29;20029;-61
2022/05/15 01:49:56;;;;;;;8.23;3.75;;;;;;;;;;4878296;29;20051;-62
2022/05/15 01:52:22;;;;;;;11.77;3.47;;;;;;;;;;4878052;29;20393;-59
2022/05/15 01:54:48;;;;;;;7.28;3.33;;;;;;;;;;4877598;29;20089;-62
2022/05/15 01:57:14;;;;;;;10.73;3.60;;;;;;;;;;4877904;29;20033;-63
2022/05/15 01:59:41;;;;;;;9.85;3.30;;;;;;;;;;4877657;29;20032;-63
2022/05/15 02:02:07;;;;;;;11.25;3.63;;;;;;;;;;4878825;29;20021;-63
2022/05/15 02:04:33;;;;;;;7.18;3.58;;;;;;;;;;4879254;29;20119;-65
2022/05/15 02:07:00;;;;;;;8.70;3.30;;;;;;;;;;4877374;29;20029;-58
2022/05/15 02:09:26;;;;;;;6.10;2.95;;;;;;;;;;4876989;29;20041;-58
2022/05/15 02:11:52;;;;;;;9.65;3.55;;;;;;;;;;4877142;29;20021;-61
2022/05/15 02:14:18;;;;;;;11.07;3.53;;;;;;;;;;4877052;29;20036;-61
2022/05/15 02:16:44;;;;;;;7.32;3.33;;;;;;;;;;4876914;29;20032;-63
2022/05/15 02:19:11;;;;;;;9.00;3.40;;;;;;;;;;4877052;29;20045;-59
2022/05/15 02:21:37;;;;;;;9.18;3.60;;;;;;;;;;4877231;29;20070;-59
2022/05/15 02:24:03;;;;;;;9.35;3.30;;;;;;;;;;4877145;29;20036;-60
2022/05/15 02:26:29;;;;;;;7.45;3.40;;;;;;;;;;4876945;29;20033;-62
2022/05/15 02:28:55;;;;;;;9.98;3.58;;;;;;;;;;4877280;29;20029;-59
2022/05/15 02:31:21;;;;;;;9.48;4.18;;;;;;;;;;4877197;29;20029;-59
2022/05/15 02:33:47;;;;;;;10.45;3.53;;;;;;;;;;4877105;29;20492;-62
2022/05/15 02:36:13;;;;;;;7.22;3.50;;;;;;;;;;4877069;29;20037;-59
2022/05/15 02:38:40;;;;;;;9.90;3.65;;;;;;;;;;4876985;29;20041;-61
2022/05/15 02:41:06;;;;;;;10.73;3.88;;;;;;;;;;4876933;29;20385;-57
2022/05/15 02:43:32;;;;;;;7.35;3.55;;;;;;;;;;4860342;29;20033;-58
2022/05/15 02:45:58;;;;;;;11.15;3.65;;;;;;;;;;4877025;29;20375;-59
2022/05/15 02:51:09;;;;;;;6.45;3.53;;;;;;;;;;4877419;29;20047;-64
2022/05/15 02:53:37;;;;;;;7.78;3.70;;;;;;;;;;4877041;29;20474;-59
2022/05/15 02:56:08;;;;;;;7.07;3.72;;;;;;;;;;4877085;29;20497;-58
2022/05/15 02:58:35;;;;;;;10.13;3.10;;;;;;;;;;4876848;29;20406;-63
2022/05/15 03:01:01;;;;;;;7.88;3.63;;;;;;;;;;4877131;29;20057;-62
2022/05/15 03:03:28;;;;;;;10.57;3.92;;;;;;;;;;4877128;29;20029;-58
2022/05/15 03:05:54;;;;;;;9.98;3.50;;;;;;;;;;4876943;29;20041;-60
2022/05/15 03:08:20;;;;;;;6.88;3.60;;;;;;;;;;4876426;29;20406;-61
2022/05/15 03:10:46;;;;;;;8.40;3.53;;;;;;;;;;4876895;29;20033;-58
2022/05/15 03:13:12;;;;;;;10.45;3.60;;;;;;;;;;4876801;29;20017;-58
2022/05/15 03:15:38;;;;;;;10.50;3.45;;;;;;;;;;4877037;29;20037;-59
2022/05/15 03:18:05;;;;;;;8.82;3.20;;;;;;;;;;4876825;29;20112;-59
2022/05/15 03:20:31;;;;;;;9.32;3.72;;;;;;;;;;4877022;29;20040;-63
2022/05/15 03:22:59;;;;;;;8.77;3.47;;;;;;;;;;4877007;29;20032;-59
2022/05/15 03:25:27;;;;;;;7.40;3.75;;;;;;;;;;4876172;29;20413;-62
2022/05/15 03:27:54;;;;;;;7.38;3.75;;;;;;;;;;4876768;29;20029;-58
2022/05/15 03:30:20;;;;;;;15.13;3.88;;;;;;;;;;4876364;29;20132;-57
2022/05/15 03:32:46;;;;;;;9.88;4.03;;;;;;;;;;4876577;29;20558;-58
2022/05/15 03:35:14;;;;;;;9.38;3.63;;;;;;;;;;4876693;29;20128;-63
2022/05/15 03:37:40;;;;;;;7.88;3.00;;;;;;;;;;4876826;29;20033;-62
2022/05/15 03:40:07;;;;;;;7.43;3.20;;;;;;;;;;4879908;29;20033;-64
2022/05/15 03:42:33;;;;;;;8.52;3.72;;;;;;;;;;4879807;29;20048;-60
2022/05/15 03:44:59;;;;;;;8.68;3.45;;;;;;;;;;4879436;29;20052;-57
2022/05/15 03:47:25;;;;;;;8.55;3.40;;;;;;;;;;4879819;29;20093;-62
2022/05/15 03:49:53;;;;;;;6.40;3.30;;;;;;;;;;4880049;29;20033;-63
2022/05/15 03:52:19;;;;;;;13.82;3.83;;;;;;;;;;4879762;29;20025;-62
2022/05/15 03:54:46;;;;;;;6.30;3.30;;;;;;;;;;4879714;29;20029;-63
2022/05/15 03:57:12;;;;;;;12.45;3.75;;;;;;;;;;4880072;29;20022;-57
2022/05/15 03:59:39;;;;;;;8.93;3.55;;;;;;;;;;4862620;29;20033;-61
2022/05/15 04:02:07;;;;;;;6.22;3.30;;;;;;;;;;4879712;29;20033;-59
2022/05/15 04:04:34;;;;;;;7.18;3.42;;;;;;;;;;4879505;29;20450;-62
2022/05/15 04:07:00;;;;;;;8.38;3.97;;;;;;;;;;4879471;29;20044;-64
2022/05/15 04:09:27;;;;;;;6.88;3.40;;;;;;;;;;4879308;29;20049;-58
2022/05/15 04:11:53;;;;;;;8.45;4.00;;;;;;;;;;4879218;29;20061;-64
2022/05/15 04:14:19;;;;;;;7.65;3.38;;;;;;;;;;4879473;29;20035;-63
2022/05/15 04:16:45;;;;;;;9.27;3.90;;;;;;;;;;4879550;29;20394;-66
2022/05/15 04:19:11;;;;;;;7.95;3.88;;;;;;;;;;4879471;29;20436;-63
2022/05/15 04:21:40;;;;;;;6.20;3.40;;;;;;;;;;4879491;29;20037;-58
2022/05/15 04:24:07;;;;;;;8.73;3.65;;;;;;;;;;4879158;29;20621;-63
2022/05/15 04:26:33;;;;;;;6.13;3.40;;;;;;;;;;4879267;29;20045;-58
2022/05/15 04:29:00;;;;;;;8.45;3.50;;;;;;;;;;4879363;29;20096;-58
2022/05/15 04:31:26;;;;;;;8.52;3.72;;;;;;;;;;4879076;29;20489;-64
2022/05/15 04:33:52;;;;;;;10.52;3.70;;;;;;;;;;4879181;29;20040;-64
2022/05/15 04:36:18;;;;;;;7.78;3.35;;;;;;;;;;4879070;29;20036;-64
2022/05/15 04:38:44;;;;;;;7.75;3.47;;;;;;;;;;4879011;29;20040;-58
2022/05/15 04:41:10;;;;;;;9.38;3.72;;;;;;;;;;4878954;29;20045;-58
2022/05/15 04:43:36;;;;;;;8.50;2.90;;;;;;;;;;4878910;29;20042;-58
2022/05/15 04:46:07;;;;;;;7.50;3.10;;;;;;;;;;4879205;29;20049;-64
2022/05/15 04:48:33;;;;;;;8.98;2.90;;;;;;;;;;4878858;29;20750;-65
2022/05/15 04:50:59;;;;;;;9.38;3.28;;;;;;;;;;4861679;29;20471;-58
2022/05/15 04:53:27;;;;;;;7.88;3.10;;;;;;;;;;4878879;29;20422;-64
2022/05/15 04:55:53;;;;;;;6.82;2.90;;;;;;;;;;4878647;29;20025;-64
2022/05/15 04:58:19;;;;;;;6.65;3.10;;;;;;;;;;4878822;29;20120;-62
2022/05/15 05:00:45;;;;;;;5.70;3.13;;;;;;;;;;4878504;29;20398;-58
2022/05/15 05:03:12;;;;;;;8.20;2.85;;;;;;;;;;4878650;29;20032;-59
2022/05/15 05:05:38;;;;;;;6.07;2.78;;;;;;;;;;4878278;29;20048;-59
2022/05/15 05:08:05;;;;;;;7.45;3.25;;;;;;;;;;4877806;29;20080;-64
2022/05/15 05:10:31;;;;;;;7.32;4.20;;;;;;;;;;4877896;29;20025;-60
2022/05/15 05:12:57;;;;;;;8.90;3.13;;;;;;;;;;4878192;29;20104;-59
2022/05/15 05:15:23;;;;;;;5.85;2.95;;;;;;;;;;4878208;29;20037;-59
2022/05/15 05:17:49;;;;;;;6.97;2.88;;;;;;;;;;4877912;29;20138;-59
2022/05/15 05:20:16;;;;;;;7.75;2.80;;;;;;;;;;4877972;29;20081;-58
2022/05/15 05:22:42;;;;;;;7.15;3.00;;;;;;;;;;4878133;29;20021;-60
2022/05/15 05:25:08;;;;;;;8.00;3.25;;;;;;;;;;4878128;29;20037;-62
2022/05/15 05:27:36;;;;;;;7.47;2.88;;;;;;;;;;4877907;29;20032;-58
2022/05/15 05:30:02;;;;;;;9.38;3.08;;;;;;;;;;4878095;29;20044;-59
2022/05/15 05:32:28;;;;;;;8.65;3.17;;;;;;;;;;4878173;29;20075;-58
2022/05/15 05:34:54;;;;;;;9.48;2.97;;;;;;;;;;4878389;29;20055;-62
2022/05/15 05:37:20;;;;;;;8.93;3.80;;;;;;;;;;4877835;29;20029;-62
2022/05/15 05:39:46;;;;;;;7.80;2.92;;;;;;;;;;4878006;29;20064;-62
2022/05/15 05:42:12;;;;;;;7.40;3.38;;;;;;;;;;4876131;29;20036;-62
2022/05/15 05:44:38;;;;;;;7.70;3.50;;;;;;;;;;4867823;29;20092;-58
2022/05/15 05:47:05;;;;;;;7.50;3.28;;;;;;;;;;4864045;29;20057;-58
2022/05/15 05:49:31;;;;;;;5.40;3.17;;;;;;;;;;4859396;29;20128;-59
2022/05/15 05:51:57;;;;;;;7.85;3.22;;;;;;;;;;4859240;29;20116;-58
2022/05/15 05:54:23;;;;;;;8.18;3.80;;;;;;;;;;4859308;29;20033;-58
2022/05/15 05:56:49;;;;;;;9.38;3.50;;;;;;;;;;4859151;29;20029;-59
2022/05/15 05:59:16;;;;;;;11.35;3.28;;;;;;;;;;4858880;29;20075;-62
2022/05/15 06:01:42;;;;;;;8.68;3.90;;;;;;;;;;4858522;29;20402;-59
2022/05/15 06:06:52;;;;;;;8.20;3.65;;;;;;;;;;4858622;29;20044;-57
2022/05/15 06:09:18;;;;;;;7.00;3.33;;;;;;;;;;4858636;29;20037;-57
2022/05/15 06:11:44;;;;;;;7.65;3.35;;;;;;;;;;4858732;29;20044;-61
2022/05/15 06:14:10;;;;;;;8.23;3.63;;;;;;;;;;4858839;29;20033;-64
2022/05/15 06:16:37;;;;;;;10.13;3.53;;;;;;;;;;4858858;29;20065;-59
2022/05/15 06:19:03;;;;;;;9.98;3.30;;;;;;;;;;4858728;29;20029;-59
2022/05/15 06:21:29;;;;;;;7.90;3.42;;;;;;;;;;4858792;29;20031;-60
2022/05/15 06:23:55;;;;;;;8.52;3.30;;;;;;;;;;4858551;29;20108;-64
2022/05/15 06:26:21;;;;;;;9.48;3.22;;;;;;;;;;4858611;29;20069;-64
2022/05/15 06:28:47;;;;;;;8.02;3.17;;;;;;;;;;4858481;29;20044;-59
2022/05/15 06:31:13;;;;;;;10.18;3.60;;;;;;;;;;4860436;29;20025;-58
2022/05/15 06:33:39;;;;;;;8.35;3.25;;;;;;;;;;4867153;29;20035;-62
2022/05/15 06:36:06;;;;;;;8.63;3.25;;;;;;;;;;4865562;29;20022;-60
2022/05/15 06:38:32;;;;;;;9.85;3.20;;;;;;;;;;4866580;29;20021;-61
2022/05/15 06:40:58;;;;;;;8.45;3.38;;;;;;;;;;4867109;29;20085;-58
2022/05/15 06:43:24;;;;;;;8.82;4.28;;;;;;;;;;4865008;29;20093;-62
2022/05/15 06:45:51;;;;;;;10.27;3.95;;;;;;;;;;4866779;29;20083;-63
2022/05/15 06:48:17;;;;;;;9.35;3.97;;;;;;;;;;4866930;29;20029;-62
2022/05/15 06:50:43;;;;;;;8.40;2.72;;;;;;;;;;4865370;29;20424;-63
2022/05/15 06:53:12;;;;;;;10.40;3.72;;;;;;;;;;4867210;29;20047;-63
2022/05/15 06:57:28;;;;;;;10.85;3.95;;;;;;;;;;4867162;29;20057;-59
2022/05/15 06:58:24;;;;;;;6.20;3.08;;;;;;;;;;4867007;29;20037;-61
2022/05/15 07:00:50;;;;;;;10.40;4.07;;;;;;;;;;4865978;29;20029;-59
2022/05/15 07:03:16;;;;;;;10.90;3.83;;;;;;;;;;4866097;29;20111;-62
2022/05/15 07:05:42;;;;;;;9.55;3.72;;;;;;;;;;4867227;29;20071;-60
2022/05/15 07:08:10;;;;;;;11.82;4.00;;;;;;;;;;4865480;29;20046;-63
2022/05/15 07:10:36;;;;;;;10.95;3.80;;;;;;;;;;4867446;29;20037;-58
2022/05/15 07:13:02;;;;;;;8.23;4.32;;;;;;;;;;4863621;29;20045;-66
2022/05/15 07:15:29;;;;;;;7.30;4.07;;;;;;;;;;4873873;29;20032;-64
2022/05/15 07:17:55;;;;;;;17.63;8.73;;;;;;;;;;4878209;29;20037;-64
2022/05/15 07:20:21;;;;;;;7.50;3.38;;;;;;;;;;4869733;29;20036;-58
2022/05/15 07:22:47;;;;;;;7.88;3.65;;;;;;;;;;4870385;29;20376;-65
2022/05/15 07:25:13;;;;;;;8.73;3.22;;;;;;;;;;4850799;29;20482;-59
2022/05/15 07:27:39;;;;;;;7.65;3.20;;;;;;;;;;4869386;29;20033;-67
2022/05/15 07:30:06;;;;;;;12.25;3.63;;;;;;;;;;4868774;29;20047;-67
2022/05/15 07:32:32;;;;;;;11.02;3.38;;;;;;;;;;4867470;29;20549;-64
2022/05/15 07:34:58;;;;;;;6.60;3.17;;;;;;;;;;4869511;29;20097;-66
2022/05/15 07:37:24;;;;;;;10.35;4.25;;;;;;;;;;4860944;29;20057;-65
2022/05/15 07:39:50;;;;;;;6.25;2.97;;;;;;;;;;4865978;29;20049;-58
2022/05/15 07:42:16;;;;;;;8.45;2.80;;;;;;;;;;4876499;29;20036;-59
2022/05/15 07:44:43;;;;;;;6.85;2.50;;;;;;;;;;4879615;29;20096;-67
2022/05/15 07:47:09;;;;;;;7.90;2.38;;;;;;;;;;4880018;29;20108;-61
2022/05/15 07:49:36;;;;;;;5.15;2.50;;;;;;;;;;4879184;29;20041;-59
2022/05/15 07:52:02;;;;;;;6.40;2.17;;;;;;;;;;4879516;29;20398;-59
2022/05/15 07:54:29;;;;;;;13.25;8.02;;;;;;;;;;4873254;29;20370;-66
2022/05/15 07:56:55;;;;;;;6.05;3.10;;;;;;;;;;4851720;29;20443;-63
2022/05/15 07:59:21;;;;;;;8.02;2.70;;;;;;;;;;4867501;29;20064;-63
2022/05/15 08:01:47;;;;;;;6.07;2.90;;;;;;;;;;4869605;29;20109;-59
2022/05/15 08:04:13;;;;;;;6.20;2.15;;;;;;;;;;4868950;29;20363;-56
2022/05/15 08:09:44;;;;;;;6.30;2.40;;;;;;;;;;4819509;29;20171;-58
2022/05/15 08:12:10;;;;;;;7.22;2.83;;;;;;;;;;4819823;29;20206;-58
2022/05/15 08:14:37;;;;;;;14.15;3.55;;;;;;;;;;4820465;29;20088;-58
2022/05/15 08:17:05;;;;;;;9.57;2.17;;;;;;;;;;4821137;29;20477;-59
2022/05/15 08:25:01;;;;;;;6.95;2.50;;;;;;;;;;4820700;29;20115;-59
2022/05/15 08:27:27;;;;;;;5.80;2.35;;;;;;;;;;4821323;29;20046;-59
2022/05/15 08:29:53;;;;;;;13.27;9.27;;;;;;;;;;4820943;29;20126;-59
2022/05/15 08:32:19;;;;;;;7.80;2.85;;;;;;;;;;4821082;29;20071;-58
2022/05/15 08:34:45;;;;;;;7.80;3.25;;;;;;;;;;4821319;29;20054;-58
2022/05/15 08:37:11;;;;;;;7.72;2.50;;;;;;;;;;4821351;29;20129;-60
2022/05/15 08:39:37;;;;;;;8.70;2.50;;;;;;;;;;4824106;29;20042;-62
2022/05/15 08:42:23;;;;;;;11.77;3.20;;;;;;;;;;4841930;29;20111;-67
2022/05/15 08:44:52;;;;;;;9.23;2.50;;;;;;;;;;4841790;29;20073;-57
2022/05/15 08:47:22;;;;;;;20.88;4.05;;;;;;;;;;4841886;29;20483;-57
2022/05/15 08:49:54;;;;;;;26.95;4.32;;;;;;;;;;4841805;29;20030;-57
2022/05/15 08:52:23;;;;;;;5.53;3.10;;;;;;;;;;4842039;29;20042;-57
2022/05/15 08:54:55;;;;;;;9.43;3.20;;;;;;;;;;4841643;29;20030;-57
2022/05/15 08:57:30;;;;;;;8.25;2.83;;;;;;;;;;4841620;29;20057;-59
2022/05/15 08:59:57;;;;;;;7.55;2.75;;;;;;;;;;4841695;29;20026;-60
2022/05/15 09:02:25;;;;;;;7.72;3.15;;;;;;;;;;4841683;29;20121;-67
2022/05/15 09:04:52;;;;;;;6.15;3.17;;;;;;;;;;4825018;29;20062;-66
2022/05/15 09:07:23;;;;;;;8.02;3.05;;;;;;;;;;4845274;29;20117;-59
2022/05/15 09:10:08;;;;;;;10.23;3.45;;;;;;;;;;4859846;29;20058;-58
2022/05/15 09:12:36;;;;;;;6.70;3.33;;;;;;;;;;4869574;29;20040;-67
2022/05/15 09:15:04;;;;;;;13.73;3.47;;;;;;;;;;4870225;29;20494;-62
2022/05/15 09:17:45;;;;;;;7.63;3.13;;;;;;;;;;4867292;29;20471;-58
2022/05/15 09:20:26;;;;;;;9.73;2.92;;;;;;;;;;4869027;29;20045;-57
2022/05/15 09:22:59;;;;;;;9.57;3.30;;;;;;;;;;4869201;29;20048;-57
2022/05/15 09:25:25;;;;;;;6.97;2.50;;;;;;;;;;4867022;29;20073;-63
2022/05/15 09:28:08;;;;;;;6.03;2.40;;;;;;;;;;4868311;29;20390;-65
2022/05/15 09:30:34;;;;;;;8.25;2.72;;;;;;;;;;4868886;29;20033;-58
2022/05/15 09:33:00;;;;;;;7.00;2.95;;;;;;;;;;4868997;29;20029;-65
2022/05/15 09:35:26;;;;;;;17.15;3.20;;;;;;;;;;4868996;29;20057;-57
2022/05/15 09:40:41;;;;;;;10.85;3.28;;;;;;;;;;4869010;29;20081;-63
2022/05/15 09:43:32;;;;;;;9.23;2.97;;;;;;;;;;4870830;29;20028;-57
2022/05/15 09:45:59;;;;;;;8.82;2.97;;;;;;;;;;4864855;29;20102;-57
2022/05/15 09:48:31;;;;;;;13.57;3.67;;;;;;;;;;4867434;29;20025;-59
2022/05/15 09:50:58;;;;;;;19.92;5.00;;;;;;;;;;4861225;29;20033;-67
2022/05/15 09:53:38;;;;;;;12.15;4.45;;;;;;;;;;4866985;29;20029;-60
2022/05/15 09:56:06;;;;;;;16.80;5.57;;;;;;;;;;4868502;29;20032;-68
2022/05/15 09:59:02;;;;;;;19.73;4.60;;;;;;;;;;4871551;29;20056;-63
2022/05/15 10:01:55;;;;;;;9.10;3.85;;;;;;;;;;4774821;30;20419;-60
2022/05/15 10:04:21;;;;;;;;;;;;;;;;;;4776739;30;20119;-66
2022/05/15 10:06:53;;;;;;;10.25;5.13;;;;;;;;;;4779871;30;20359;-68
2022/05/15 10:09:25;;;;;;;9.00;3.33;;;;;;;;;;4777429;30;20109;-63
2022/05/15 10:11:55;;;;;;;11.32;5.07;;;;;;;;;;4775014;30;20048;-62
2022/05/15 10:14:33;;;;;;;25.63;6.10;;;;;;;;;;4769631;30;20440;-70
2022/05/15 10:17:00;;;;;;;12.52;4.63;;;;;;;;;;4782886;30;20523;-63
2022/05/15 10:19:29;;;;;;;5.38;1.92;;;;;;;;;;4779605;30;20073;-65
2022/05/15 10:22:18;;;;;;;13.88;2.22;;;;;;;;;;4772791;30;20576;-59
2022/05/15 10:24:45;;;;;;;15.50;3.20;;;;;;;;;;4765707;30;20048;-67
2022/05/15 10:27:17;;;;;;;15.27;2.88;;;;;;;;;;4780947;30;20692;-67
2022/05/15 10:29:46;;;;;;;8.45;2.15;;;;;;;;;;4779296;30;20059;-65
2022/05/15 10:32:14;;;;;;;6.55;2.50;;;;;;;;;;4783109;30;20051;-58
2022/05/15 10:34:41;;;;;;;5.03;2.42;;;;;;;;;;4767992;30;20036;-68
2022/05/15 10:37:19;;;;;;;9.48;2.60;;;;;;;;;;4792832;29;20034;-59
2022/05/15 10:39:54;;;;;;;6.50;2.42;;;;;;;;;;4848722;29;20045;-59
2022/05/15 10:42:26;;;;;;;15.73;2.88;;;;;;;;;;4844190;29;20113;-58
2022/05/15 10:44:52;;;;;;;13.33;2.27;;;;;;;;;;4857074;29;20049;-57
2022/05/15 10:47:23;;;;;;;12.00;2.83;;;;;;;;;;4861266;29;20045;-58
2022/05/15 10:49:49;;;;;;;6.03;2.10;;;;;;;;;;4864264;29;20458;-58
2022/05/15 10:52:24;;;;;;;16.25;3.45;;;;;;;;;;4864562;29;20166;-58
2022/05/15 10:57:48;;;;;;;18.00;2.92;;;;;;;;;;4864605;29;20040;-62
2022/05/15 11:00:31;;;;;;;11.38;2.80;;;;;;;;;;4862112;29;20033;-63
2022/05/15 11:03:23;;;;;;;6.57;2.42;;;;;;;;;;4849992;29;20030;-58
2022/05/15 11:05:49;;;;;;;;;;;;;;;;;;4831224;29;20555;-57
2022/05/15 11:08:15;;;;;;;7.70;2.75;;;;;;;;;;4856258;29;19924;-58
2022/05/15 11:11:00;;;;;;;6.65;2.60;;;;;;;;;;4863861;29;20033;-58
2022/05/15 11:13:44;;;;;;;6.70;2.15;;;;;;;;;;4864060;29;20048;-58
2022/05/15 11:16:22;;;;;;;8.30;2.42;;;;;;;;;;4864103;29;20124;-58
2022/05/15 11:18:56;;;;;;;11.65;2.78;;;;;;;;;;4864270;29;20030;-59
2022/05/15 11:21:34;;;;;;;6.03;2.33;;;;;;;;;;4864216;29;20036;-67
2022/05/15 11:24:15;;;;;;;11.02;3.22;;;;;;;;;;4864061;29;20606;-60
2022/05/15 11:26:47;;;;;;;8.60;2.75;;;;;;;;;;4864152;29;20490;-58
2022/05/15 11:29:15;;;;;;;6.53;2.70;;;;;;;;;;4865536;29;20036;-58
2022/05/15 11:31:51;;;;;;;7.35;3.15;;;;;;;;;;4872329;29;20040;-58
2022/05/15 11:34:17;;;;;;;7.88;2.63;;;;;;;;;;4872809;29;20026;-58
2022/05/15 11:36:45;;;;;;;9.32;2.50;;;;;;;;;;4879916;29;20379;-59
2022/05/15 11:39:12;;;;;;;4.03;1.85;;;;;;;;;;4882417;29;20036;-58
2022/05/15 11:41:38;;;;;;;6.22;1.98;;;;;;;;;;4882744;29;20033;-67
2022/05/15 11:44:20;;;;;;;6.80;2.33;;;;;;;;;;4882412;29;20096;-60
2022/05/15 11:46:47;;;;;;;6.57;2.45;;;;;;;;;;4882518;29;20041;-58
2022/05/15 11:49:17;;;;;;;5.93;2.17;;;;;;;;;;4865463;29;20040;-62
2022/05/15 11:51:44;;;;;;;9.18;1.95;;;;;;;;;;4882658;29;20043;-58
2022/05/15 11:54:11;;;;;;;6.63;2.30;;;;;;;;;;4882532;29;20032;-59
2022/05/15 11:56:37;;;;;;;4.38;2.25;;;;;;;;;;4882870;29;20035;-59
2022/05/15 11:59:08;;;;;;;7.53;2.00;;;;;;;;;;4880196;29;20033;-61
2022/05/15 12:01:35;;;;;;;6.38;2.47;;;;;;;;;;4878725;29;20112;-58
2022/05/15 12:04:40;;;;;;;6.47;2.35;;;;;;;;;;4879034;29;20085;-58
2022/05/15 12:07:09;;;;;;;8.50;2.70;;;;;;;;;;4785315;29;20042;-59
2022/05/15 12:09:41;;;;;;;8.93;3.00;;;;;;;;;;4785308;30;20050;-59
2022/05/15 12:12:30;;;;;;;6.95;3.30;;;;;;;;;;4785624;30;20043;-59
2022/05/15 12:15:25;;;;;;;6.20;2.38;;;;;;;;;;4785143;30;20031;-58
2022/05/15 12:17:51;;;;;;;8.90;3.20;;;;;;;;;;4785126;30;20085;-66
2022/05/15 12:20:22;;;;;;;7.13;1.92;;;;;;;;;;4785706;30;20153;-57
2022/05/15 12:22:56;;;;;;;5.50;2.07;;;;;;;;;;4785226;30;20119;-59
2022/05/15 12:25:29;;;;;;;4.15;1.83;;;;;;;;;;4784921;30;20173;-59
2022/05/15 12:30:50;;;;;;;5.00;1.90;;;;;;;;;;4785395;30;20116;-61
2022/05/15 12:33:20;;;;;;;5.72;1.70;;;;;;;;;;4785171;30;20350;-58
2022/05/15 12:35:47;;;;;;;4.00;1.60;;;;;;;;;;4785442;30;20164;-58
2022/05/15 12:38:13;;;;;;;11.25;3.95;;;;;;;;;;4833899;29;20234;-58
2022/05/15 12:41:17;;;;;;;9.75;5.10;;;;;;;;;;4860404;29;20509;-58
2022/05/15 12:43:45;;;;;;;20.80;8.55;;;;;;;;;;4821459;29;20114;-57
2022/05/15 12:46:24;;;;;;;6.60;2.33;;;;;;;;;;4821424;29;20197;-58
2022/05/15 12:48:50;;;;;;;16.08;7.65;;;;;;;;;;4821352;29;20110;-58
2022/05/15 12:51:24;;;;;;;14.63;6.75;;;;;;;;;;4821330;29;20114;-57
2022/05/15 12:53:51;;;;;;;10.23;2.92;;;;;;;;;;4821444;29;20485;-59
2022/05/15 12:56:17;;;;;;;7.45;1.67;;;;;;;;;;4821200;29;20133;-58
2022/05/15 12:58:43;;;;;;;6.90;2.30;;;;;;;;;;4820551;29;20038;-58
2022/05/15 13:01:13;;;;;;;9.13;3.85;;;;;;;;;;4820363;29;20039;-58
2022/05/15 13:03:43;;;;;;;8.65;2.67;;;;;;;;;;4820286;29;20045;-61
2022/05/15 13:06:09;;;;;;;6.88;2.40;;;;;;;;;;4820217;29;20395;-57
2022/05/15 13:08:48;;;;;;;6.00;2.42;;;;;;;;;;4819431;29;20446;-57
2022/05/15 13:11:19;;;;;;;6.35;1.70;;;;;;;;;;4819170;29;20585;-58
2022/05/15 13:13:45;;;;;;;6.00;2.60;;;;;;;;;;4827257;29;20048;-59
2022/05/15 13:16:15;;;;;;;6.00;2.22;;;;;;;;;;4859041;29;20052;-60
2022/05/15 13:18:44;;;;;;;9.15;2.80;;;;;;;;;;4859241;29;20042;-58
2022/05/15 13:21:10;;;;;;;5.32;2.28;;;;;;;;;;4859747;29;20033;-57
2022/05/15 13:23:38;;;;;;;6.10;2.00;;;;;;;;;;4858522;29;20035;-58
2022/05/15 13:26:05;;;;;;;6.95;1.90;;;;;;;;;;4859280;29;20394;-57
2022/05/15 13:28:31;;;;;;;6.00;2.13;;;;;;;;;;4842456;29;20204;-65
2022/05/15 13:30:58;;;;;;;8.52;2.50;;;;;;;;;;4863430;29;20040;-57
2022/05/15 13:33:26;;;;;;;6.47;2.70;;;;;;;;;;4869171;29;20021;-57
2022/05/15 13:35:54;;;;;;;11.63;5.47;;;;;;;;;;4877924;29;20053;-58
2022/05/15 13:38:29;;;;;;;9.50;3.88;;;;;;;;;;4877597;29;20041;-59
2022/05/15 13:43:58;;;;;;;8.55;3.70;;;;;;;;;;4864725;29;20109;-60
2022/05/15 13:46:28;;;;;;;10.57;3.60;;;;;;;;;;4866232;29;20033;-59
2022/05/15 13:48:54;;;;;;;7.75;2.85;;;;;;;;;;4866092;29;20112;-57
2022/05/15 13:51:39;;;;;;;6.43;2.90;;;;;;;;;;4851057;29;20040;-57
2022/05/15 13:54:08;;;;;;;7.45;2.00;;;;;;;;;;4864706;29;20087;-58
2022/05/15 13:56:34;;;;;;;3.92;2.05;;;;;;;;;;4867071;29;20038;-63
2022/05/15 13:59:00;;;;;;;6.53;1.90;;;;;;;;;;4866002;29;20427;-59
2022/05/15 14:01:26;;;;;;;6.70;2.00;;;;;;;;;;4867322;29;20082;-63
2022/05/15 14:03:53;;;;;;;6.05;1.85;;;;;;;;;;4865573;29;20029;-58
2022/05/15 14:06:21;;;;;;;7.18;1.67;;;;;;;;;;4867806;29;20061;-58
2022/05/15 14:08:58;;;;;;;4.97;1.92;;;;;;;;;;4867212;29;20080;-57
2022/05/15 14:11:24;;;;;;;6.32;2.30;;;;;;;;;;4867192;29;20033;-58
2022/05/15 14:13:51;;;;;;;5.57;1.90;;;;;;;;;;4868224;29;20029;-58
2022/05/15 14:16:19;;;;;;;9.68;2.70;;;;;;;;;;4868718;29;20047;-68
2022/05/15 14:18:45;;;;;;;12.20;2.58;;;;;;;;;;4866599;29;20061;-60
2022/05/15 14:21:21;;;;;;;6.28;2.17;;;;;;;;;;4870854;29;20035;-57
2022/05/15 14:23:47;;;;;;;10.73;2.55;;;;;;;;;;4876860;29;20533;-58
2022/05/15 14:26:14;;;;;;;7.88;2.30;;;;;;;;;;4876537;29;20093;-60
2022/05/15 14:28:40;;;;;;;9.90;2.50;;;;;;;;;;4876790;29;20029;-64
2022/05/15 14:31:10;;;;;;;4.80;1.70;;;;;;;;;;4876989;29;20033;-58
2022/05/15 14:33:36;;;;;;;6.63;2.08;;;;;;;;;;4876514;29;20060;-58
2022/05/15 14:36:03;;;;;;;6.85;2.00;;;;;;;;;;4877129;29;20047;-58
2022/05/15 14:38:30;;;;;;;5.90;2.50;;;;;;;;;;4871566;29;20549;-59
2022/05/15 14:40:56;;;;;;;6.78;2.22;;;;;;;;;;4860544;29;20037;-58
2022/05/15 14:43:22;;;;;;;5.95;1.60;;;;;;;;;;4867005;29;20985;-59
2022/05/15 14:45:57;;;;;;;5.88;1.73;;;;;;;;;;4870774;29;20382;-59
2022/05/15 14:48:26;;;;;;;6.03;2.00;;;;;;;;;;4873514;29;20021;-60
2022/05/15 14:50:53;;;;;;;9.00;2.20;;;;;;;;;;4860191;29;20044;-61
2022/05/15 14:53:22;;;;;;;3.65;1.58;;;;;;;;;;4858041;29;20104;-58
2022/05/15 14:56:09;;;;;;;7.22;1.75;;;;;;;;;;4857667;29;20040;-58
2022/05/15 14:58:54;;;;;;;5.18;1.80;;;;;;;;;;4858060;29;20021;-59
2022/05/15 15:01:21;;;;;;;4.65;1.95;;;;;;;;;;4857620;29;20073;-59
2022/05/15 15:03:47;;;;;;;5.57;1.90;;;;;;;;;;4858064;29;20145;-58
2022/05/15 15:06:13;;;;;;;8.00;2.35;;;;;;;;;;4857446;29;20133;-58
2022/05/15 15:08:40;;;;;;;5.53;1.50;;;;;;;;;;4857124;29;20055;-66
2022/05/15 15:11:11;;;;;;;5.95;1.90;;;;;;;;;;4857884;29;20539;-61
2022/05/15 15:13:37;;;;;;;6.95;1.98;;;;;;;;;;4857750;29;20094;-58
2022/05/15 15:16:03;;;;;;;8.55;2.13;;;;;;;;;;4857767;29;20033;-58